Time;durP1;ratioP1;P1;durP2;ratioP2;P2;SDS_P1;SDS_P2;PMS_P1;PMS_P2;Temp;Humidity;BMP_temperature;BMP_pressure;BME280_temperature;BME280_humidity;BME280_pressure;Samples;Min_cycle;Max_cycle;Signal;HPM_P1;HPM_P2
2022/07/15 00:02:24;;;;;;;3.30;1.10;;;;;;;16.27;56.02;99864.15;130308;1268;108245;-82
2022/07/15 00:05:29;;;;;;;2.00;1.10;;;;;;;16.23;56.25;99868.14;130329;1268;109011;-82
2022/07/15 00:08:36;;;;;;;2.70;1.20;;;;;;;16.19;56.41;99866.30;130332;1267;108707;-81
2022/07/15 00:11:41;;;;;;;3.20;1.20;;;;;;;16.16;56.19;99869.31;130339;1268;109163;-80
2022/07/15 00:14:46;;;;;;;1.90;1.10;;;;;;;16.16;56.46;99870.84;130321;1268;108722;-81
2022/07/15 00:17:52;;;;;;;2.20;1.20;;;;;;;16.15;56.26;99869.14;130343;1268;107753;-81
2022/07/15 00:20:58;;;;;;;3.90;1.50;;;;;;;16.17;56.33;99872.34;130312;1268;108742;-83
2022/07/15 00:24:03;;;;;;;2.90;1.10;;;;;;;16.15;56.25;99869.30;130334;1268;108860;-82
2022/07/15 00:27:09;;;;;;;2.00;1.10;;;;;;;16.12;56.45;99869.54;130366;1268;108957;-81
2022/07/15 00:30:14;;;;;;;3.50;1.20;;;;;;;16.08;56.50;99872.67;130348;1268;109138;-81
2022/07/15 00:33:20;;;;;;;2.30;1.20;;;;;;;16.05;56.51;99870.04;130293;1268;108636;-81
2022/07/15 00:36:25;;;;;;;3.70;1.30;;;;;;;16.02;56.37;99859.70;130315;1268;108703;-81
2022/07/15 00:39:31;;;;;;;2.90;1.30;;;;;;;15.99;56.62;99857.41;130248;1268;108767;-81
2022/07/15 00:42:45;;;;;;;3.00;1.30;;;;;;;15.94;56.85;99861.02;130330;1268;108763;-82
2022/07/15 00:45:52;;;;;;;2.80;1.20;;;;;;;15.85;57.11;99857.02;130273;1268;108733;-73
2022/07/15 00:48:59;;;;;;;2.90;1.10;;;;;;;15.78;57.24;99860.89;130244;1268;108178;-82
2022/07/15 00:52:07;;;;;;;3.20;1.20;;;;;;;15.70;57.32;99857.30;130355;1268;108715;-81
2022/07/15 00:55:14;;;;;;;4.60;1.10;;;;;;;15.58;57.67;99858.48;130208;1268;108676;-81
2022/07/15 00:58:23;;;;;;;4.80;1.10;;;;;;;15.45;57.72;99856.92;130359;1268;109109;-82
2022/07/15 01:01:28;;;;;;;2.10;1.20;;;;;;;15.37;58.08;99853.98;130389;1268;107415;-82
2022/07/15 01:04:35;;;;;;;2.20;1.20;;;;;;;15.36;58.18;99852.08;130325;1268;108743;-77
2022/07/15 01:07:41;;;;;;;1.80;1.10;;;;;;;15.29;58.05;99856.14;130283;1268;108498;-76
2022/07/15 01:10:49;;;;;;;4.60;1.10;;;;;;;15.24;58.35;99855.77;130139;1268;108885;-81
2022/07/15 01:13:54;;;;;;;1.80;1.20;;;;;;;15.15;58.45;99854.73;130138;1268;108968;-76
2022/07/15 01:17:00;;;;;;;1.90;1.30;;;;;;;15.06;58.52;99854.27;130258;1268;108747;-76
2022/07/15 01:20:07;;;;;;;2.20;1.30;;;;;;;15.00;58.76;99855.88;130125;1268;107530;-73
2022/07/15 01:23:19;;;;;;;2.90;1.30;;;;;;;14.94;58.63;99856.48;130177;1269;108683;-73
2022/07/15 01:26:40;;;;;;;3.10;1.20;;;;;;;14.84;59.03;99856.05;130256;1268;108854;-73
2022/07/15 01:29:47;;;;;;;2.50;1.20;;;;;;;14.67;58.86;99857.89;130282;1268;108799;-82
2022/07/15 01:32:53;;;;;;;1.60;1.20;;;;;;;14.51;59.34;99859.04;130401;1268;109226;-80
2022/07/15 01:35:59;;;;;;;2.50;1.20;;;;;;;14.41;59.46;99861.75;130310;1268;108728;-80
2022/07/15 01:39:05;;;;;;;2.30;1.20;;;;;;;14.28;59.55;99859.41;130213;1268;108980;-80
2022/07/15 01:42:11;;;;;;;2.00;1.00;;;;;;;14.21;59.58;99859.33;130261;1268;108872;-81
2022/07/15 01:45:17;;;;;;;2.50;1.30;;;;;;;14.13;59.83;99863.97;130229;1268;108752;-80
2022/07/15 01:52:09;;;;;;;;;;;;;;;14.01;59.94;99864.74;130333;1268;108874;-77
2022/07/15 01:55:15;;;;;;;2.40;1.30;;;;;;;13.98;60.05;99871.02;130340;1268;108893;-76
2022/07/15 01:58:20;;;;;;;2.70;1.30;;;;;;;13.91;60.15;99877.33;130147;1268;108774;-76
2022/07/15 02:01:26;;;;;;;3.90;1.40;;;;;;;13.86;60.33;99875.14;130242;1268;108858;-81
2022/07/15 02:04:32;;;;;;;2.40;1.20;;;;;;;13.81;60.38;99877.70;130203;1268;108769;-82
2022/07/15 02:07:38;;;;;;;2.70;1.30;;;;;;;13.72;60.31;99887.65;130237;1268;108526;-81
2022/07/15 02:10:44;;;;;;;2.80;1.30;;;;;;;13.67;60.68;99889.16;130302;1268;108778;-80
2022/07/15 02:13:58;;;;;;;2.80;1.20;;;;;;;13.62;60.62;99886.77;130298;1268;108766;-76
2022/07/15 02:17:04;;;;;;;2.50;1.30;;;;;;;13.54;60.92;99884.54;130228;1268;108731;-75
2022/07/15 02:20:14;;;;;;;3.40;2.20;;;;;;;13.47;60.85;99882.95;130138;1268;109033;-76
2022/07/15 02:23:20;;;;;;;2.20;1.10;;;;;;;13.41;61.10;99880.95;130192;1268;109013;-77
2022/07/15 02:26:26;;;;;;;3.00;1.20;;;;;;;13.34;61.18;99880.96;130275;1268;108737;-75
2022/07/15 02:29:33;;;;;;;2.30;1.10;;;;;;;13.33;61.34;99874.73;130278;1268;109579;-80
2022/07/15 02:32:39;;;;;;;3.30;1.20;;;;;;;13.38;61.30;99876.91;130283;1268;109225;-79
2022/07/15 02:35:45;;;;;;;2.40;1.50;;;;;;;13.39;61.36;99881.48;130245;1268;107683;-80
2022/07/15 02:38:51;;;;;;;2.90;1.50;;;;;;;13.37;61.35;99885.08;130276;1268;109020;-79
2022/07/15 02:41:56;;;;;;;3.20;1.30;;;;;;;13.28;61.29;99885.85;130139;1268;108764;-83
2022/07/15 02:45:03;;;;;;;3.20;1.40;;;;;;;13.19;61.55;99891.63;130254;1268;109007;-82
2022/07/15 02:48:10;;;;;;;5.20;2.00;;;;;;;13.13;61.62;99893.02;130378;1268;108276;-80
2022/07/15 02:51:20;;;;;;;3.30;1.40;;;;;;;13.06;61.93;99892.60;130241;1268;108269;-82
2022/07/15 02:54:25;;;;;;;5.00;1.70;;;;;;;13.03;62.12;99897.73;130301;1268;108719;-82
2022/07/15 02:57:31;;;;;;;3.50;1.50;;;;;;;13.04;62.30;99899.40;130289;1268;109187;-77
2022/07/15 03:00:36;;;;;;;4.20;1.40;;;;;;;13.03;62.43;99903.29;130250;1268;108663;-80
2022/07/15 03:03:42;;;;;;;2.20;1.30;;;;;;;13.08;62.47;99901.63;130309;1268;108821;-80
2022/07/15 03:06:51;;;;;;;2.90;1.20;;;;;;;13.22;62.68;99902.17;130416;1268;108718;-82
2022/07/15 03:09:57;;;;;;;2.80;1.40;;;;;;;13.40;62.77;99904.21;130629;1268;108926;-79
2022/07/15 03:13:03;;;;;;;2.90;1.60;;;;;;;13.54;62.65;99897.20;130668;1268;108852;-80
2022/07/15 03:16:09;;;;;;;4.00;2.20;;;;;;;13.64;62.72;99897.02;130913;1268;108807;-80
2022/07/15 03:19:16;;;;;;;2.80;1.40;;;;;;;13.74;62.80;99896.38;130471;1268;108717;-80
2022/07/15 03:22:24;;;;;;;4.00;1.40;;;;;;;13.76;62.78;99899.37;130468;1268;108796;-80
2022/07/15 03:25:30;;;;;;;2.60;1.60;;;;;;;13.76;62.87;99904.08;130437;1268;108863;-80
2022/07/15 03:28:41;;;;;;;2.30;1.40;;;;;;;13.66;63.05;99904.98;130278;1268;108774;-80
2022/07/15 03:31:47;;;;;;;2.60;1.60;;;;;;;13.58;63.11;99911.40;130266;1268;108751;-81
2022/07/15 03:34:58;;;;;;;2.60;1.30;;;;;;;13.55;63.43;99919.67;130245;1268;109224;-81
2022/07/15 03:38:05;;;;;;;2.90;1.30;;;;;;;13.63;63.40;99913.07;130220;1268;108844;-81
2022/07/15 03:41:11;;;;;;;3.20;1.50;;;;;;;13.68;63.24;99920.74;130174;1268;108567;-81
2022/07/15 03:44:17;;;;;;;3.20;1.40;;;;;;;13.78;63.54;99917.52;130317;1268;107755;-81
2022/07/15 03:47:25;;;;;;;4.00;1.60;;;;;;;13.97;63.40;99914.71;130418;1268;109047;-80
2022/07/15 03:50:30;;;;;;;4.70;1.70;;;;;;;14.24;63.47;99913.94;130220;1268;108944;-81
2022/07/15 03:53:36;;;;;;;2.00;1.60;;;;;;;14.50;63.40;99915.04;130282;1268;109258;-82
2022/07/15 03:56:42;;;;;;;3.70;1.30;;;;;;;14.74;63.39;99914.61;130255;1268;108754;-82
2022/07/15 03:59:47;;;;;;;2.30;1.40;;;;;;;14.94;63.01;99913.80;130319;1268;108579;-82
2022/07/15 04:02:53;;;;;;;3.00;1.50;;;;;;;15.26;63.45;99914.80;130252;1268;108928;-80
2022/07/15 04:05:58;;;;;;;2.40;1.10;;;;;;;15.73;63.06;99913.77;130247;1268;108949;-80
2022/07/15 04:09:04;;;;;;;3.60;1.30;;;;;;;16.19;63.20;99912.85;130229;1268;108725;-80
2022/07/15 04:12:10;;;;;;;3.50;2.00;;;;;;;16.69;62.99;99920.60;130211;1268;108834;-80
2022/07/15 04:15:18;;;;;;;1.80;1.30;;;;;;;17.18;62.42;99919.06;130360;1268;109018;-80
2022/07/15 04:18:24;;;;;;;2.20;1.10;;;;;;;17.59;62.36;99920.09;130279;1268;108996;-79
2022/07/15 04:21:30;;;;;;;3.00;1.10;;;;;;;18.13;62.09;99916.77;130194;1268;107650;-81
2022/07/15 04:24:36;;;;;;;2.30;1.10;;;;;;;18.51;61.78;99915.58;130232;1268;108877;-80
2022/07/15 04:27:42;;;;;;;2.70;1.20;;;;;;;18.72;60.97;99920.03;130215;1268;108788;-80
2022/07/15 04:30:47;;;;;;;3.90;1.30;;;;;;;18.82;60.94;99922.64;130257;1268;108761;-80
2022/07/15 04:33:53;;;;;;;3.00;1.20;;;;;;;18.82;60.18;99924.16;130242;1268;108750;-82
2022/07/15 04:36:59;;;;;;;4.60;1.50;;;;;;;18.63;59.87;99929.88;130265;1268;106831;-83
2022/07/15 04:40:07;;;;;;;2.20;1.00;;;;;;;18.38;60.30;99935.70;130309;1268;108935;-83
2022/07/15 04:43:13;;;;;;;2.10;1.20;;;;;;;18.36;60.84;99935.80;130353;1267;108757;-82
2022/07/15 04:46:20;;;;;;;2.20;1.40;;;;;;;18.51;61.04;99938.70;130335;1268;109207;-81
2022/07/15 04:52:52;;;;;;;2.50;1.00;;;;;;;19.29;60.36;99938.05;130180;1268;109492;-80
2022/07/15 04:55:57;;;;;;;3.20;1.70;;;;;;;19.52;59.79;99936.79;130228;1268;108943;-80
2022/07/15 04:59:02;;;;;;;3.40;1.90;;;;;;;19.68;59.28;99944.95;130261;1268;107879;-80
2022/07/15 05:02:08;;;;;;;2.80;1.40;;;;;;;19.67;58.91;99947.90;130305;1268;108602;-79
2022/07/15 05:05:17;;;;;;;2.00;1.30;;;;;;;19.52;59.16;99944.68;130292;1268;108900;-82
2022/07/15 05:08:26;;;;;;;3.30;1.30;;;;;;;19.45;59.39;99953.77;130368;1268;108711;-85
2022/07/15 05:11:33;;;;;;;1.90;1.30;;;;;;;19.76;59.41;99960.97;130530;1268;108770;-82
2022/07/15 05:14:40;;;;;;;3.00;1.40;;;;;;;20.11;59.19;99964.30;130360;1268;108893;-84
2022/07/15 05:17:46;;;;;;;4.00;1.80;;;;;;;20.12;58.16;99979.55;130324;1268;108736;-84
2022/07/15 05:20:56;;;;;;;3.10;1.60;;;;;;;19.79;57.67;99981.65;130360;1268;107765;-81
2022/07/15 05:24:05;;;;;;;4.80;1.70;;;;;;;19.24;57.10;99988.37;130199;1268;107642;-78
2022/07/15 05:27:11;;;;;;;5.60;1.30;;;;;;;19.04;57.97;99992.41;130253;1268;108903;-78
2022/07/15 05:30:17;;;;;;;4.10;1.80;;;;;;;19.26;57.96;99995.84;130276;1268;108866;-78
2022/07/15 05:33:23;;;;;;;6.10;1.40;;;;;;;19.21;57.08;99996.11;130209;1268;108842;-77
2022/07/15 05:36:29;;;;;;;3.70;1.60;;;;;;;19.01;57.27;100001.37;130254;1268;108853;-76
2022/07/15 05:39:37;;;;;;;5.10;1.50;;;;;;;18.84;57.51;100005.31;130228;1268;109042;-76
2022/07/15 05:42:43;;;;;;;2.40;1.40;;;;;;;18.81;57.87;100007.54;130194;1268;108872;-76
2022/07/15 05:45:49;;;;;;;2.50;1.20;;;;;;;18.83;57.18;100011.21;130177;1268;109047;-76
2022/07/15 05:48:55;;;;;;;2.60;1.20;;;;;;;18.70;56.93;100007.06;130251;1267;108822;-77
2022/07/15 05:52:03;;;;;;;3.60;1.50;;;;;;;18.62;57.26;100006.52;130299;1266;109313;-76
2022/07/15 05:55:10;;;;;;;2.50;1.20;;;;;;;18.53;56.52;100013.09;130219;1268;108977;-76
2022/07/15 05:58:15;;;;;;;2.10;1.30;;;;;;;18.40;57.20;100018.16;130171;1268;107752;-76
2022/07/15 06:01:22;;;;;;;3.10;1.20;;;;;;;18.32;56.98;100027.72;130199;1268;108789;-76
2022/07/15 06:04:28;;;;;;;2.40;1.20;;;;;;;18.07;56.78;100033.42;130186;1268;108980;-76
2022/07/15 06:07:33;;;;;;;3.20;1.30;;;;;;;17.88;56.95;100035.81;130193;1268;107005;-75
2022/07/15 06:10:41;;;;;;;1.90;1.20;;;;;;;17.68;57.30;100035.92;130197;1268;108827;-75
2022/07/15 06:13:46;;;;;;;4.20;1.20;;;;;;;17.75;57.71;100038.63;130193;1268;108868;-75
2022/07/15 06:16:53;;;;;;;3.50;1.30;;;;;;;17.74;57.27;100044.32;130192;1268;108679;-76
2022/07/15 06:19:59;;;;;;;2.00;1.10;;;;;;;17.45;57.56;100053.60;130261;1268;108863;-76
2022/07/15 06:23:04;;;;;;;2.10;1.10;;;;;;;17.25;58.42;100065.33;130197;1268;108760;-76
2022/07/15 06:26:09;;;;;;;2.30;1.30;;;;;;;17.28;58.58;100063.04;130242;1268;108973;-75
2022/07/15 06:29:15;;;;;;;2.90;1.20;;;;;;;17.38;58.63;100062.05;130199;1268;108856;-76
2022/07/15 06:32:20;;;;;;;4.00;1.20;;;;;;;17.61;58.73;100059.15;130155;1268;108675;-76
2022/07/15 06:35:26;;;;;;;2.30;1.10;;;;;;;18.07;58.24;100058.46;130206;1268;108893;-78
2022/07/15 06:38:33;;;;;;;4.00;1.10;;;;;;;18.34;57.78;100058.09;130225;1268;108582;-75
2022/07/15 06:41:39;;;;;;;2.10;1.20;;;;;;;18.38;57.75;100063.95;130230;1268;109162;-79
2022/07/15 06:44:44;;;;;;;2.00;1.00;;;;;;;18.16;57.89;100068.74;130191;1268;108696;-79
2022/07/15 06:47:51;;;;;;;3.60;1.10;;;;;;;17.85;58.02;100068.10;130236;1268;108733;-79
2022/07/15 06:50:57;;;;;;;2.60;1.00;;;;;;;17.70;58.52;100072.01;130258;1268;108893;-76
2022/07/15 06:54:03;;;;;;;2.40;1.30;;;;;;;17.66;58.70;100073.50;130236;1268;109226;-79
2022/07/15 06:57:12;;;;;;;1.80;1.30;;;;;;;17.72;58.31;100074.14;130201;1268;107864;-78
2022/07/15 07:00:18;;;;;;;2.40;1.10;;;;;;;17.72;58.64;100074.84;130275;1268;107632;-77
2022/07/15 07:03:24;;;;;;;2.60;1.10;;;;;;;17.80;58.85;100074.66;130234;1268;108787;-79
2022/07/15 07:06:29;;;;;;;3.10;1.10;;;;;;;18.06;58.51;100079.98;130137;1268;108675;-76
2022/07/15 07:09:35;;;;;;;2.40;1.30;;;;;;;18.24;57.90;100075.96;130178;1268;108767;-75
2022/07/15 07:12:40;;;;;;;1.30;0.80;;;;;;;18.24;56.91;100085.14;130216;1268;108576;-76
2022/07/15 07:15:46;;;;;;;2.00;0.70;;;;;;;18.10;56.88;100086.69;130236;1268;108810;-78
2022/07/15 07:18:51;;;;;;;2.30;0.90;;;;;;;17.94;56.68;100087.88;130274;1268;108717;-78
2022/07/15 07:21:56;;;;;;;1.40;0.60;;;;;;;17.97;57.23;100089.73;130249;1268;108873;-78
2022/07/15 07:25:02;;;;;;;1.50;0.80;;;;;;;18.15;57.11;100090.67;130312;1268;108842;-77
2022/07/15 07:28:07;;;;;;;2.30;0.80;;;;;;;18.39;57.12;100091.97;130194;1268;109001;-76
2022/07/15 07:31:14;;;;;;;2.20;0.80;;;;;;;18.37;55.72;100093.08;130198;1268;107112;-78
2022/07/15 07:34:20;;;;;;;1.40;0.80;;;;;;;18.17;55.96;100093.46;130219;1268;108790;-78
2022/07/15 07:37:26;;;;;;;4.10;1.20;;;;;;;18.10;56.57;100095.93;130246;1268;108646;-79
2022/07/15 07:40:32;;;;;;;3.70;0.90;;;;;;;18.38;56.79;100093.00;130210;1268;109859;-76
2022/07/15 07:43:37;;;;;;;1.80;1.00;;;;;;;18.57;55.76;100098.98;130216;1268;108550;-76
2022/07/15 07:46:43;;;;;;;3.00;1.00;;;;;;;18.77;55.96;100100.25;130275;1268;108765;-77
2022/07/15 07:49:48;;;;;;;1.90;0.80;;;;;;;18.97;53.96;100106.25;130202;1268;108954;-77
2022/07/15 07:52:54;;;;;;;1.00;0.60;;;;;;;19.06;54.01;100111.89;130252;1268;109688;-77
2022/07/15 07:55:59;;;;;;;2.40;1.00;;;;;;;19.20;53.12;100116.68;130296;1268;107438;-77
2022/07/15 07:59:05;;;;;;;2.30;0.70;;;;;;;19.06;50.85;100121.96;130316;1268;108379;-78
2022/07/15 08:02:10;;;;;;;2.60;0.80;;;;;;;18.72;50.71;100119.42;130215;1268;108692;-78
2022/07/15 08:05:17;;;;;;;2.20;0.90;;;;;;;18.56;52.55;100122.17;130230;1268;108124;-79
2022/07/15 08:08:24;;;;;;;2.90;0.90;;;;;;;18.85;52.47;100122.54;130246;1267;108566;-76
2022/07/15 08:11:29;;;;;;;2.50;0.90;;;;;;;19.17;52.37;100120.97;130237;1268;108199;-76
2022/07/15 08:14:35;;;;;;;2.40;1.00;;;;;;;19.45;51.44;100123.86;130219;1268;108748;-76
2022/07/15 08:17:40;;;;;;;2.00;0.90;;;;;;;19.72;50.36;100124.63;130190;1268;107666;-76
2022/07/15 08:20:46;;;;;;;1.70;1.10;;;;;;;19.75;50.04;100127.17;130198;1268;109001;-75
2022/07/15 08:23:51;;;;;;;2.90;1.00;;;;;;;19.76;50.00;100126.08;130259;1268;108939;-75
2022/07/15 08:26:57;;;;;;;2.50;1.10;;;;;;;19.89;50.49;100127.05;130088;1268;108986;-75
2022/07/15 08:30:02;;;;;;;2.20;1.00;;;;;;;19.67;48.36;100135.27;130202;1268;108757;-77
2022/07/15 08:33:08;;;;;;;2.80;0.90;;;;;;;19.42;49.48;100136.45;130243;1268;108573;-76
2022/07/15 08:36:13;;;;;;;2.10;0.90;;;;;;;19.45;48.24;100137.64;130223;1268;108925;-77
2022/07/15 08:39:19;;;;;;;3.30;1.00;;;;;;;19.37;47.65;100141.88;130269;1268;108965;-76
2022/07/15 08:42:24;;;;;;;3.10;0.80;;;;;;;19.43;48.39;100140.23;130305;1268;108775;-75
2022/07/15 08:45:30;;;;;;;3.20;0.90;;;;;;;19.53;47.62;100141.36;130269;1268;108697;-76
2022/07/15 08:48:38;;;;;;;3.70;1.00;;;;;;;19.51;47.60;100139.59;130203;1268;108863;-75
2022/07/15 08:51:45;;;;;;;3.40;0.70;;;;;;;19.50;48.14;100143.84;130283;1268;109005;-75
2022/07/15 08:54:51;;;;;;;1.50;0.60;;;;;;;19.29;46.73;100157.85;130372;1268;109724;-76
2022/07/15 08:57:57;;;;;;;1.10;0.50;;;;;;;19.23;48.10;100148.46;130257;1268;108837;-77
2022/07/15 09:01:02;;;;;;;2.90;0.90;;;;;;;19.30;47.78;100153.31;130282;1268;107055;-77
2022/07/15 09:04:07;;;;;;;2.80;0.80;;;;;;;19.41;47.29;100151.02;130296;1268;108929;-76
2022/07/15 09:07:13;;;;;;;3.80;0.90;;;;;;;19.48;46.64;100146.74;130316;1268;109238;-76
2022/07/15 09:10:18;;;;;;;1.50;0.60;;;;;;;19.62;47.36;100141.98;130108;1268;214100;-75
2022/07/15 09:13:31;;;;;;;4.10;0.70;;;;;;;19.87;46.74;100152.73;130315;1268;106763;-75
2022/07/15 09:16:36;;;;;;;2.10;0.60;;;;;;;19.98;46.58;100151.91;130251;1268;108757;-75
2022/07/15 09:20:08;;;;;;;3.60;0.90;;;;;;;20.22;47.13;100143.25;130332;1268;108867;-75
2022/07/15 09:23:20;;;;;;;3.10;0.60;;;;;;;20.48;45.49;100148.40;130361;1268;108740;-75
2022/07/15 09:26:28;;;;;;;1.40;0.60;;;;;;;20.41;44.95;100143.98;130316;1268;108987;-76
2022/07/15 09:36:30;;;;;;;3.10;0.80;;;;;;;20.35;43.98;100160.00;130250;1268;108807;-77
2022/07/15 09:39:55;;;;;;;4.20;1.00;;;;;;;20.26;44.33;100166.40;130238;1268;107906;-76
2022/07/15 09:43:08;;;;;;;1.70;0.60;;;;;;;20.09;45.48;100164.64;130263;1268;109690;-77
2022/07/15 09:46:13;;;;;;;2.60;0.50;;;;;;;20.02;44.92;100175.85;131728;1268;108996;-77
2022/07/15 09:49:32;;;;;;;2.30;0.70;;;;;;;19.95;45.71;100174.63;130237;1268;108497;-77
2022/07/15 09:52:48;;;;;;;2.70;0.60;;;;;;;20.01;45.70;100175.31;130199;1268;108688;-77
2022/07/15 09:55:55;;;;;;;3.70;0.50;;;;;;;20.13;44.90;100175.23;130170;1268;108838;-77
2022/07/15 09:59:02;;;;;;;1.50;0.50;;;;;;;20.12;44.65;100169.62;130251;1268;108661;-77
2022/07/15 10:02:08;;;;;;;1.60;0.60;;;;;;;20.22;44.62;100180.77;130282;1268;108727;-76
2022/07/15 10:05:13;;;;;;;1.70;0.70;;;;;;;20.28;43.48;100183.77;130255;1268;108875;-76
2022/07/15 10:08:20;;;;;;;3.20;0.70;;;;;;;20.17;44.06;100183.48;130320;1268;107767;-77
2022/07/15 10:11:25;;;;;;;2.40;0.60;;;;;;;20.22;43.83;100184.47;130259;1268;110017;-76
2022/07/15 10:15:05;;;;;;;1.00;0.50;;;;;;;20.25;42.70;100190.66;130193;1270;108912;-78
2022/07/15 10:18:27;;;;;;;2.70;0.70;;;;;;;20.21;44.29;100188.61;130329;1268;109898;-76
2022/07/15 10:21:41;;;;;;;1.90;0.60;;;;;;;20.29;44.29;100189.02;130333;1268;108637;-76
2022/07/15 10:25:11;;;;;;;2.00;0.60;;;;;;;20.61;44.50;100188.80;130238;1268;109764;-76
2022/07/15 10:28:23;;;;;;;2.00;0.40;;;;;;;20.67;42.79;100194.81;130226;1268;108890;-75
2022/07/15 10:31:30;;;;;;;2.90;0.70;;;;;;;20.59;42.38;100188.57;130371;1269;108293;-76
2022/07/15 10:34:37;;;;;;;2.30;0.60;;;;;;;20.85;43.58;100183.02;130289;1268;108775;-75
2022/07/15 10:38:16;;;;;;;2.50;0.70;;;;;;;21.26;41.74;100195.77;130253;1270;108328;-77
2022/07/15 10:41:21;;;;;;;1.40;0.30;;;;;;;21.42;40.81;100190.73;130268;1268;108819;-75
2022/07/15 10:44:29;;;;;;;2.90;0.70;;;;;;;21.31;39.95;100201.27;130254;1270;108827;-75
2022/07/15 10:47:35;;;;;;;2.60;0.50;;;;;;;20.91;39.58;100206.24;130177;1269;108694;-76
2022/07/15 10:50:43;;;;;;;1.40;0.50;;;;;;;20.69;39.93;100203.05;130186;1268;108765;-76
2022/07/15 10:53:51;;;;;;;3.20;0.60;;;;;;;20.77;41.00;100193.98;130236;1268;108833;-77
2022/07/15 10:56:56;;;;;;;3.80;0.40;;;;;;;20.73;40.57;100199.77;130198;1268;108181;-77
2022/07/15 11:00:02;;;;;;;2.60;0.60;;;;;;;20.51;40.56;100205.89;130246;1268;108826;-76
2022/07/15 11:03:11;;;;;;;2.90;0.50;;;;;;;20.39;41.27;100206.83;130255;1268;108741;-76
2022/07/15 11:06:17;;;;;;;2.60;0.60;;;;;;;20.31;41.09;100207.46;130259;1268;108768;-76
2022/07/15 11:09:46;;;;;;;1.50;0.40;;;;;;;20.46;41.31;100203.75;130223;1268;108856;-77
2022/07/15 11:13:06;;;;;;;1.80;0.70;;;;;;;20.94;41.09;100197.67;130248;1269;108134;-75
2022/07/15 11:16:13;;;;;;;3.10;0.50;;;;;;;21.08;39.85;100200.00;130315;1268;108244;-75
2022/07/15 11:19:20;;;;;;;1.30;0.60;;;;;;;20.70;39.21;100219.13;130205;1268;108735;-76
2022/07/15 11:22:28;;;;;;;1.50;0.50;;;;;;;20.35;39.53;100226.22;130229;1270;109174;-76
2022/07/15 11:25:36;;;;;;;3.20;0.60;;;;;;;20.11;39.82;100216.29;130271;1269;108836;-76
2022/07/15 11:28:50;;;;;;;1.20;0.40;;;;;;;20.08;40.32;100216.08;130295;1268;108654;-76
2022/07/15 11:31:57;;;;;;;2.00;0.50;;;;;;;20.21;40.17;100221.45;130332;1269;108715;-76
2022/07/15 11:35:03;;;;;;;1.10;0.50;;;;;;;20.21;39.22;100221.95;130214;1269;107755;-77
2022/07/15 11:38:08;;;;;;;2.00;0.60;;;;;;;20.25;39.83;100214.52;130297;1269;108600;-77
2022/07/15 11:44:37;;;;;;;1.60;0.50;;;;;;;20.37;39.85;100222.66;130228;1268;108832;-77
2022/07/15 11:47:54;;;;;;;2.00;0.70;;;;;;;20.41;39.26;100226.17;130358;1268;108661;-77
2022/07/15 11:51:00;;;;;;;2.70;0.70;;;;;;;20.46;39.02;100220.30;130254;1269;108902;-78
2022/07/15 11:54:14;;;;;;;1.80;0.60;;;;;;;20.49;38.00;100230.88;130387;1268;108807;-79
2022/07/15 11:57:19;;;;;;;2.20;0.50;;;;;;;20.78;39.91;100228.60;130159;1268;107669;-77
2022/07/15 12:00:31;;;;;;;1.60;0.60;;;;;;;21.03;38.42;100227.97;130285;1270;108772;-78
2022/07/15 12:03:40;;;;;;;2.00;0.60;;;;;;;20.71;38.93;100239.29;130293;1269;108618;-79
2022/07/15 12:06:52;;;;;;;3.40;0.60;;;;;;;20.65;38.46;100232.21;130406;1269;107288;-78
2022/07/15 12:09:58;;;;;;;2.00;0.50;;;;;;;20.83;39.08;100230.73;130237;1270;108642;-78
2022/07/15 12:13:04;;;;;;;1.30;0.60;;;;;;;20.94;38.67;100229.73;130223;1268;108836;-77
2022/07/15 12:16:10;;;;;;;4.50;1.80;;;;;;;21.21;39.29;100223.75;130286;1268;108660;-75
2022/07/15 12:19:19;;;;;;;3.20;0.90;;;;;;;21.50;38.62;100232.80;130255;1269;108800;-75
2022/07/15 12:22:25;;;;;;;1.50;0.40;;;;;;;21.43;37.38;100242.96;130224;1268;108186;-77
2022/07/15 12:25:30;;;;;;;3.60;0.50;;;;;;;21.04;37.83;100239.82;130202;1268;108659;-76
2022/07/15 12:28:37;;;;;;;1.90;0.90;;;;;;;20.96;37.93;100244.18;130221;1268;108804;-77
2022/07/15 12:31:44;;;;;;;2.10;0.80;;;;;;;20.93;38.25;100242.99;130271;1268;108722;-77
2022/07/15 12:34:55;;;;;;;1.10;0.50;;;;;;;20.78;37.43;100248.29;130269;1268;108720;-77
2022/07/15 12:38:00;;;;;;;0.70;0.40;;;;;;;20.51;37.63;100256.59;130255;1269;107597;-76
2022/07/15 12:41:11;;;;;;;0.90;0.40;;;;;;;20.45;37.64;100258.54;130327;1268;108634;-77
2022/07/15 12:44:16;;;;;;;2.00;0.60;;;;;;;20.48;37.90;100256.86;130311;1270;108852;-77
2022/07/15 12:47:22;;;;;;;1.90;0.60;;;;;;;20.53;37.07;100262.04;130269;1268;108687;-77
2022/07/15 12:50:28;;;;;;;2.20;0.60;;;;;;;20.25;37.59;100259.91;130203;1269;109140;-76
2022/07/15 12:53:39;;;;;;;1.40;0.50;;;;;;;20.03;38.56;100261.39;130305;1269;108641;-76
2022/07/15 12:56:54;;;;;;;5.10;0.70;;;;;;;20.12;39.15;100252.52;130318;1268;108790;-76
2022/07/15 13:00:03;;;;;;;1.40;0.50;;;;;;;20.27;39.09;100258.69;130293;1268;108754;-76
2022/07/15 13:03:11;;;;;;;2.50;0.60;;;;;;;20.19;39.33;100258.23;130300;1269;108965;-76
2022/07/15 13:06:18;;;;;;;1.50;0.50;;;;;;;20.23;39.14;100252.84;130296;1268;108619;-76
2022/07/15 13:09:24;;;;;;;2.00;0.50;;;;;;;20.33;39.28;100254.56;130227;1268;108623;-77
2022/07/15 13:12:29;;;;;;;2.50;0.60;;;;;;;20.61;39.05;100255.15;130252;1270;108756;-77
2022/07/15 13:15:35;;;;;;;1.80;0.40;;;;;;;20.80;38.69;100254.48;130300;1268;108830;-75
2022/07/15 13:18:41;;;;;;;1.10;0.50;;;;;;;20.93;37.59;100260.15;130315;1268;107466;-77
2022/07/15 13:21:46;;;;;;;3.40;0.60;;;;;;;20.70;37.74;100257.15;130315;1268;108726;-76
2022/07/15 13:24:51;;;;;;;2.80;0.30;;;;;;;20.63;38.13;100262.13;130241;1268;108636;-76
2022/07/15 13:27:58;;;;;;;2.60;0.60;;;;;;;20.73;38.36;100259.84;130266;1269;108726;-76
2022/07/15 13:31:03;;;;;;;1.40;0.50;;;;;;;20.76;38.16;100259.16;130258;1268;108754;-76
2022/07/15 13:34:09;;;;;;;1.30;0.50;;;;;;;20.71;37.85;100262.50;130238;1268;108898;-76
2022/07/15 13:37:14;;;;;;;3.30;0.60;;;;;;;20.53;38.56;100263.50;130497;1268;108804;-75
2022/07/15 13:40:20;;;;;;;2.80;0.60;;;;;;;20.52;39.21;100261.75;130279;1270;108609;-77
2022/07/15 13:43:26;;;;;;;3.50;0.60;;;;;;;20.45;38.74;100270.39;130223;1268;109006;-77
2022/07/15 13:46:31;;;;;;;2.10;0.60;;;;;;;20.17;38.72;100274.53;130184;1268;108781;-77
2022/07/15 13:53:01;;;;;;;2.70;0.50;;;;;;;20.26;39.11;100264.23;130287;1270;108694;-77
2022/07/15 13:56:06;;;;;;;2.00;0.60;;;;;;;20.14;38.28;100262.13;130306;1268;108633;-75
2022/07/15 13:59:12;;;;;;;1.00;0.40;;;;;;;20.00;37.89;100271.90;130249;1268;108794;-76
2022/07/15 14:02:17;;;;;;;3.90;0.80;;;;;;;19.95;38.40;100267.55;130291;1270;108764;-76
2022/07/15 14:05:23;;;;;;;1.40;0.50;;;;;;;19.98;38.80;100266.74;130243;1268;107727;-74
2022/07/15 14:08:28;;;;;;;0.90;0.50;;;;;;;19.92;38.58;100276.02;130230;1269;108681;-76
2022/07/15 14:11:34;;;;;;;1.90;0.60;;;;;;;19.78;38.89;100270.44;130259;1268;108683;-75
2022/07/15 14:14:40;;;;;;;1.10;0.40;;;;;;;19.89;39.43;100275.66;130218;1268;108679;-77
2022/07/15 14:17:45;;;;;;;1.50;0.40;;;;;;;19.99;38.98;100277.77;130218;1268;109008;-75
2022/07/15 14:20:50;;;;;;;2.80;0.70;;;;;;;19.93;38.60;100280.97;130245;1268;108875;-76
2022/07/15 14:23:56;;;;;;;2.70;0.60;;;;;;;19.94;38.98;100275.17;130243;1268;108956;-76
2022/07/15 14:27:01;;;;;;;1.60;0.50;;;;;;;19.96;39.19;100277.83;130254;1268;108686;-77
2022/07/15 14:30:11;;;;;;;2.70;0.60;;;;;;;19.88;39.35;100277.70;130236;1270;108748;-76
2022/07/15 14:33:17;;;;;;;1.60;0.50;;;;;;;19.78;39.60;100277.39;130232;1269;108635;-76
2022/07/15 14:36:22;;;;;;;3.50;0.70;;;;;;;19.70;39.72;100280.48;130203;1268;108977;-76